Main page
METAR-TAF:

METAR-TAF

Airports :

Oil platform

Goeree Le, Netherlands

latitude: 51-55-33N, longitude: 3-40-12E, elevation: 19 m

Current weather observation

The report was made 33 minutes ago, at 22:25 UTC
Wind 16 kt from the South/Southeast
Temperature 6°C
Humidity 93%
Pressure 1003 hPa
Visibility: 8000 m

METAR: EHSC 212225Z AUTO 15016KT 8000 ///////// 06/05 Q1003 W10/H6

Time: 23:58 (22:58 UTC)


TAF: missing

Weather observations and forecasts of more than 4000 airports (METAR and TAF reports).

The available stations are represented by yellow and red dots on the map.

Hover mouse over dot to see the name of the station.

Then click to see weather observations and forecasts.

To change the map : click on the green buttons with a black cross to zoom in, on the green button with a dash to zoom out, or on the green arrows for adjacent maps.


METAR-TAF: